Time;durP1;ratioP1;P1;durP2;ratioP2;P2;SDS_P1;SDS_P2;PMS_P1;PMS_P2;Temp;Humidity;BMP_temperature;BMP_pressure;BME280_temperature;BME280_humidity;BME280_pressure;Samples;Min_cycle;Max_cycle;Signal;HPM_P1;HPM_P2
2023/09/26 00:00:58;;;;;;;6.10;4.72;;;;;;;12.88;100.00;102001.03;5046988;28;20033;-62
2023/09/26 00:03:23;;;;;;;6.10;4.80;;;;;;;12.87;100.00;101994.94;5046434;28;20039;-61
2023/09/26 00:05:48;;;;;;;6.43;5.30;;;;;;;12.83;100.00;101993.00;5047460;28;20028;-63
2023/09/26 00:08:17;;;;;;;5.22;4.65;;;;;;;12.79;100.00;101985.94;5046625;28;20139;-63
2023/09/26 00:10:42;;;;;;;6.72;4.97;;;;;;;12.76;100.00;101993.59;5047071;28;20116;-62
2023/09/26 00:13:07;;;;;;;8.85;6.38;;;;;;;12.72;100.00;101992.56;5047113;28;20107;-63
2023/09/26 00:15:33;;;;;;;7.95;6.32;;;;;;;12.68;100.00;101990.69;5047546;28;20518;-63
2023/09/26 00:17:58;;;;;;;7.38;5.65;;;;;;;12.66;100.00;101994.94;5046585;28;20430;-63
2023/09/26 00:20:23;;;;;;;7.18;6.47;;;;;;;12.63;100.00;101987.00;5047317;28;20049;-63
2023/09/26 00:22:49;;;;;;;7.80;5.70;;;;;;;12.59;100.00;101992.06;5033679;28;20074;-63
2023/09/26 00:25:15;;;;;;;6.40;5.20;;;;;;;12.57;100.00;101990.22;5047757;28;20108;-63
2023/09/26 00:27:40;;;;;;;6.80;5.63;;;;;;;12.55;100.00;101999.69;5046876;28;20020;-62
2023/09/26 00:30:08;;;;;;;6.88;5.95;;;;;;;12.51;100.00;101993.44;5046704;28;20853;-64
2023/09/26 00:32:33;;;;;;;8.38;6.00;;;;;;;12.46;100.00;101994.97;5032954;28;20032;-63
2023/09/26 00:34:59;;;;;;;7.65;6.03;;;;;;;12.43;100.00;101992.25;5046644;28;20021;-62
2023/09/26 00:37:25;;;;;;;6.47;5.88;;;;;;;12.43;100.00;102005.25;5042778;28;20029;-63
2023/09/26 00:39:50;;;;;;;9.50;6.80;;;;;;;12.38;100.00;101997.22;5027670;28;20029;-63
2023/09/26 00:42:16;;;;;;;7.95;6.35;;;;;;;12.36;100.00;101993.69;5027591;28;20392;-64
2023/09/26 00:44:41;;;;;;;7.90;6.38;;;;;;;12.33;100.00;101988.34;5027649;28;20386;-63
2023/09/26 00:47:06;;;;;;;8.48;6.97;;;;;;;12.32;100.00;101991.78;5027938;28;20080;-62
2023/09/26 00:49:32;;;;;;;6.90;6.20;;;;;;;12.31;100.00;101990.00;5028437;28;20045;-62
2023/09/26 00:52:00;;;;;;;7.72;7.03;;;;;;;12.29;100.00;101994.22;5028013;28;20095;-63
2023/09/26 00:54:26;;;;;;;8.07;7.38;;;;;;;12.27;100.00;101988.97;5027628;28;20025;-63
2023/09/26 00:56:52;;;;;;;8.52;7.72;;;;;;;12.25;100.00;101991.50;5027570;28;20035;-64
2023/09/26 00:59:17;;;;;;;8.02;7.25;;;;;;;12.24;100.00;101983.66;5027225;28;20033;-63
2023/09/26 01:01:45;;;;;;;9.57;7.80;;;;;;;12.24;100.00;101978.44;5030342;28;20075;-63
2023/09/26 01:04:10;;;;;;;11.05;9.00;;;;;;;12.24;100.00;101983.66;5046506;28;20035;-62
2023/09/26 01:06:36;;;;;;;9.80;8.80;;;;;;;12.24;100.00;101979.34;5046168;28;20049;-62
2023/09/26 01:09:02;;;;;;;9.00;8.10;;;;;;;12.25;100.00;101975.91;5045799;28;20423;-63
2023/09/26 01:11:27;;;;;;;9.77;8.30;;;;;;;12.25;100.00;101975.00;5045754;28;20021;-63
2023/09/26 01:13:53;;;;;;;8.20;7.50;;;;;;;12.22;100.00;101974.91;5046063;28;20021;-63
2023/09/26 01:16:19;;;;;;;10.50;8.32;;;;;;;12.20;100.00;101977.44;5045459;28;20469;-62
2023/09/26 01:18:45;;;;;;;9.15;7.72;;;;;;;12.19;100.00;101972.16;5046795;28;20216;-63
2023/09/26 01:21:11;;;;;;;8.55;7.72;;;;;;;12.16;100.00;101969.44;5044849;28;20025;-63
2023/09/26 01:23:40;;;;;;;9.10;7.63;;;;;;;12.16;100.00;101972.91;5046494;28;20052;-63
2023/09/26 01:26:05;;;;;;;9.55;7.80;;;;;;;12.12;100.00;101969.28;5045615;28;20525;-63
2023/09/26 01:28:31;;;;;;;8.55;7.63;;;;;;;12.12;100.00;101976.22;5045922;28;20159;-63
2023/09/26 01:30:56;;;;;;;8.38;7.60;;;;;;;12.09;100.00;101979.56;5044789;28;20070;-63
2023/09/26 01:33:22;;;;;;;9.98;7.57;;;;;;;12.09;100.00;101973.44;5045343;28;20392;-63
2023/09/26 01:35:48;;;;;;;9.45;8.07;;;;;;;12.08;100.00;101977.75;5044431;28;20029;-62
2023/09/26 01:38:14;;;;;;;9.13;8.32;;;;;;;12.08;100.00;101972.56;5035555;28;20029;-63
2023/09/26 01:40:41;;;;;;;8.80;8.00;;;;;;;12.07;100.00;101978.56;5042708;28;20123;-62
2023/09/26 01:43:06;;;;;;;9.27;8.38;;;;;;;12.07;100.00;101980.28;5049415;28;20102;-63
2023/09/26 01:45:32;;;;;;;8.63;7.82;;;;;;;12.08;100.00;101987.25;5048923;28;20157;-63
2023/09/26 01:47:58;;;;;;;10.65;9.32;;;;;;;12.09;100.00;101983.81;5050114;28;20036;-63
2023/09/26 01:50:23;;;;;;;9.55;8.55;;;;;;;12.08;100.00;101984.66;5049128;28;20681;-63
2023/09/26 01:52:49;;;;;;;9.75;8.85;;;;;;;12.08;100.00;101976.84;5049759;28;20695;-64
2023/09/26 01:55:19;;;;;;;8.88;8.07;;;;;;;12.07;100.00;101977.69;5049150;28;20459;-61
2023/09/26 01:57:45;;;;;;;9.18;8.20;;;;;;;12.03;100.00;101967.97;5049652;28;20032;-62
2023/09/26 02:00:11;;;;;;;9.35;8.48;;;;;;;11.99;100.00;101967.84;5032244;28;20474;-62
2023/09/26 02:02:48;;;;;;;9.63;8.30;;;;;;;11.98;100.00;101966.06;5030189;28;20025;-63
2023/09/26 02:05:16;;;;;;;10.38;9.27;;;;;;;11.96;100.00;101974.63;5029898;28;20109;-63
2023/09/26 02:07:42;;;;;;;10.63;8.75;;;;;;;11.94;100.00;101968.47;5029606;28;20053;-63
2023/09/26 02:10:08;;;;;;;9.95;9.05;;;;;;;11.93;100.00;101961.47;5029989;28;20055;-63
2023/09/26 02:12:41;;;;;;;10.80;9.80;;;;;;;11.92;100.00;101959.72;5030766;28;20389;-63
2023/09/26 02:15:08;;;;;;;10.43;9.52;;;;;;;11.91;100.00;101952.75;5017653;28;20112;-62
2023/09/26 02:17:35;;;;;;;9.63;8.63;;;;;;;11.89;100.00;101963.94;5030877;28;20056;-62
2023/09/26 02:20:12;;;;;;;10.32;9.27;;;;;;;11.87;100.00;101970.78;5030009;28;20434;-62
2023/09/26 02:22:38;;;;;;;11.25;10.25;;;;;;;11.86;100.00;101957.72;5030087;28;20033;-63
2023/09/26 02:25:04;;;;;;;11.75;10.00;;;;;;;11.83;100.00;101949.81;5029313;28;20108;-62
2023/09/26 02:27:30;;;;;;;11.85;10.48;;;;;;;11.83;100.00;101949.81;5030416;28;20048;-63
2023/09/26 02:29:55;;;;;;;10.57;9.63;;;;;;;11.83;100.00;101949.81;5029489;28;20108;-63
2023/09/26 02:32:20;;;;;;;9.85;9.05;;;;;;;11.80;100.00;101950.53;5029398;28;20033;-62
2023/09/26 02:34:45;;;;;;;10.90;9.65;;;;;;;11.79;100.00;101958.25;5029834;28;20036;-64
2023/09/26 02:37:11;;;;;;;11.05;9.50;;;;;;;11.77;100.00;101955.59;5030044;28;20103;-63
2023/09/26 02:39:36;;;;;;;10.52;9.57;;;;;;;11.77;100.00;101955.59;5029666;28;20029;-63
2023/09/26 02:42:01;;;;;;;10.38;9.30;;;;;;;11.76;100.00;101962.50;5043176;28;20029;-63
2023/09/26 02:44:27;;;;;;;11.38;9.60;;;;;;;11.74;100.00;101953.78;5048809;28;20029;-64
2023/09/26 02:46:52;;;;;;;9.75;8.90;;;;;;;11.74;100.00;101963.25;5047956;28;20029;-63
2023/09/26 02:49:17;;;;;;;11.07;9.45;;;;;;;11.71;100.00;101951.00;5049172;28;20484;-63
2023/09/26 02:51:42;;;;;;;10.20;9.18;;;;;;;11.70;100.00;101943.16;5046049;28;20060;-62
2023/09/26 02:54:08;;;;;;;10.63;9.65;;;;;;;11.69;100.00;101941.41;5047655;28;20481;-63
2023/09/26 02:56:34;;;;;;;10.40;9.30;;;;;;;11.66;100.00;101936.94;5047279;28;20025;-63
2023/09/26 02:58:59;;;;;;;10.75;9.75;;;;;;;11.66;100.00;101926.56;5047757;28;20453;-63
2023/09/26 03:01:24;;;;;;;11.93;10.60;;;;;;;11.65;100.00;101927.38;5046391;28;20060;-62
2023/09/26 03:03:52;;;;;;;11.02;9.93;;;;;;;11.64;100.00;101921.28;5047734;28;20032;-63
2023/09/26 03:06:17;;;;;;;11.25;10.18;;;;;;;11.60;100.00;101919.38;5046293;28;20020;-61
2023/09/26 03:08:42;;;;;;;11.18;10.07;;;;;;;11.58;100.00;101912.34;5047736;28;20036;-63
2023/09/26 03:11:08;;;;;;;11.43;10.43;;;;;;;11.55;100.00;101918.28;5046554;28;20382;-63
2023/09/26 03:13:34;;;;;;;12.50;10.75;;;;;;;11.54;100.00;101911.31;5047107;28;20028;-63
2023/09/26 03:16:00;;;;;;;11.68;10.57;;;;;;;11.55;100.00;101905.31;5045893;28;20469;-63
2023/09/26 03:18:26;;;;;;;11.15;10.05;;;;;;;11.53;100.00;101915.63;5048218;28;20032;-63
2023/09/26 03:20:52;;;;;;;11.25;10.15;;;;;;;11.51;100.00;101916.38;5046488;28;20025;-63
2023/09/26 03:23:17;;;;;;;12.05;10.73;;;;;;;11.52;100.00;101915.56;5047393;28;20101;-61
2023/09/26 03:25:42;;;;;;;12.43;11.13;;;;;;;11.52;100.00;101918.16;5046694;28;20047;-63
2023/09/26 03:28:09;;;;;;;11.60;10.52;;;;;;;11.52;100.00;101918.16;5046626;28;20496;-63
2023/09/26 03:30:35;;;;;;;12.45;11.23;;;;;;;11.50;100.00;101918.09;5046112;28;20064;-61
2023/09/26 03:33:00;;;;;;;12.80;11.63;;;;;;;11.49;100.00;101908.53;5047001;28;20063;-63
2023/09/26 03:35:25;;;;;;;13.32;11.48;;;;;;;11.46;100.00;101913.56;5047329;28;20107;-63
2023/09/26 03:37:50;;;;;;;13.52;11.38;;;;;;;11.46;100.00;101913.56;5041935;28;20021;-64
2023/09/26 03:40:16;;;;;;;12.00;10.90;;;;;;;11.48;100.00;101916.22;5028907;28;20611;-63
2023/09/26 03:42:41;;;;;;;12.07;10.98;;;;;;;11.45;100.00;101906.59;5029447;28;20033;-63
2023/09/26 03:45:07;;;;;;;12.07;10.85;;;;;;;11.43;100.00;101913.44;5029062;28;20116;-62
2023/09/26 03:47:33;;;;;;;13.02;11.73;;;;;;;11.40;100.00;101918.50;5028900;28;20029;-63
2023/09/26 03:49:58;;;;;;;11.95;10.88;;;;;;;11.38;100.00;101920.13;5027840;28;20029;-61
2023/09/26 03:52:23;;;;;;;12.15;11.15;;;;;;;11.35;100.00;101914.78;5029241;28;20413;-63
2023/09/26 03:54:49;;;;;;;12.27;11.07;;;;;;;11.30;100.00;101911.97;5028781;28;20037;-63
2023/09/26 03:57:15;;;;;;;12.40;11.15;;;;;;;11.28;100.00;101909.31;5027826;28;20040;-62
2023/09/26 03:59:40;;;;;;;11.82;10.73;;;;;;;11.26;100.00;101910.94;5041801;28;20049;-62
2023/09/26 04:02:05;;;;;;;12.35;11.25;;;;;;;11.25;100.00;101910.88;5015624;28;20041;-63
2023/09/26 04:04:31;;;;;;;11.57;10.38;;;;;;;11.23;100.00;101905.63;5028092;28;20036;-63
2023/09/26 04:06:57;;;;;;;11.88;10.77;;;;;;;11.21;100.00;101904.66;5021458;28;20040;-63
2023/09/26 04:09:22;;;;;;;11.82;10.93;;;;;;;11.19;100.00;101903.69;5047303;28;20035;-63
2023/09/26 04:11:48;;;;;;;14.55;11.18;;;;;;;11.16;100.00;101903.56;5047644;28;20120;-63
2023/09/26 04:14:13;;;;;;;12.35;10.55;;;;;;;11.14;100.00;101910.38;5047855;28;20028;-63
2023/09/26 04:16:38;;;;;;;12.23;10.93;;;;;;;11.09;100.00;101899.78;5046890;28;20021;-63
2023/09/26 04:19:04;;;;;;;12.23;10.88;;;;;;;11.08;100.00;101910.09;5047840;28;20025;-63
2023/09/26 04:21:29;;;;;;;12.10;10.85;;;;;;;11.05;100.00;101906.53;5046805;28;20052;-62
2023/09/26 04:23:55;;;;;;;10.75;9.70;;;;;;;11.04;100.00;101903.88;5047563;28;20036;-62
2023/09/26 04:26:20;;;;;;;11.65;10.63;;;;;;;11.01;100.00;101907.19;5046700;28;20037;-63
2023/09/26 04:28:45;;;;;;;11.80;10.75;;;;;;;11.01;100.00;101901.16;5047084;28;20106;-63
2023/09/26 04:31:16;;;;;;;14.95;11.15;;;;;;;10.98;100.00;101888.91;5046008;28;20029;-63
2023/09/26 04:33:48;;;;;;;12.77;11.68;;;;;;;10.96;100.00;101882.75;5047010;28;20028;-63
2023/09/26 04:36:14;;;;;;;12.80;11.60;;;;;;;10.93;100.00;101888.69;5045909;28;20013;-63
2023/09/26 04:38:39;;;;;;;12.07;10.98;;;;;;;10.91;100.00;101881.66;5032883;28;20493;-63
2023/09/26 04:41:05;;;;;;;12.27;11.18;;;;;;;10.89;100.00;101879.00;5029413;28;20034;-63
2023/09/26 04:43:31;;;;;;;12.27;11.07;;;;;;;10.90;100.00;101890.25;5030927;28;20152;-61
2023/09/26 04:45:56;;;;;;;13.23;11.95;;;;;;;10.88;100.00;101886.69;5029391;28;20070;-63
2023/09/26 04:48:22;;;;;;;13.88;12.50;;;;;;;10.88;100.00;101876.34;5040544;28;20384;-61
2023/09/26 04:50:48;;;;;;;13.90;12.55;;;;;;;10.88;100.00;101872.00;5045574;28;20025;-63
2023/09/26 04:53:13;;;;;;;14.50;13.27;;;;;;;10.88;100.00;101876.34;5045534;28;20032;-64
2023/09/26 04:55:38;;;;;;;14.45;13.02;;;;;;;10.87;100.00;101871.94;5046690;28;20377;-61
2023/09/26 04:58:04;;;;;;;13.95;12.75;;;;;;;10.88;100.00;101865.97;5046953;28;20057;-63
2023/09/26 05:00:30;;;;;;;14.02;12.68;;;;;;;10.87;100.00;101865.06;5046003;28;20086;-63
2023/09/26 05:02:55;;;;;;;14.32;13.02;;;;;;;10.88;100.00;101866.81;5046931;28;20029;-63
2023/09/26 05:05:20;;;;;;;13.90;12.52;;;;;;;10.89;100.00;101862.53;5046134;28;20025;-62
2023/09/26 05:07:48;;;;;;;13.90;12.80;;;;;;;10.89;100.00;101857.34;5046107;28;20054;-62
2023/09/26 05:10:14;;;;;;;14.18;12.75;;;;;;;10.90;100.00;101869.50;5027342;28;20113;-62
2023/09/26 05:12:42;;;;;;;14.57;12.68;;;;;;;10.89;100.00;101875.50;5017280;28;20507;-62
2023/09/26 05:15:13;;;;;;;14.25;12.95;;;;;;;10.90;100.00;101874.69;5018021;28;20482;-63
2023/09/26 05:17:41;;;;;;;18.38;13.90;;;;;;;10.91;100.00;101871.28;5011626;28;20041;-63
2023/09/26 05:20:09;;;;;;;15.38;13.85;;;;;;;10.92;100.00;101866.16;5017900;28;20022;-61
2023/09/26 05:22:34;;;;;;;13.52;12.32;;;;;;;10.94;100.00;101871.41;5022279;28;20091;-63
2023/09/26 05:25:00;;;;;;;16.25;14.75;;;;;;;10.96;100.00;101872.38;5030414;28;20548;-63
2023/09/26 05:27:25;;;;;;;14.85;13.38;;;;;;;10.95;100.00;101870.63;5040677;28;20031;-63
2023/09/26 05:29:50;;;;;;;15.30;13.57;;;;;;;10.96;100.00;101880.16;5042193;28;20087;-63
2023/09/26 05:32:15;;;;;;;14.73;13.32;;;;;;;10.98;100.00;101878.53;5036964;28;20055;-63
2023/09/26 05:34:41;;;;;;;14.73;13.25;;;;;;;11.00;100.00;101876.91;5038671;28;20075;-63
2023/09/26 05:37:06;;;;;;;14.98;13.38;;;;;;;10.99;100.00;101869.91;5034655;28;20048;-62
2023/09/26 05:39:31;;;;;;;15.88;14.32;;;;;;;11.01;100.00;101863.09;5036654;28;20554;-63
2023/09/26 05:41:56;;;;;;;14.75;13.07;;;;;;;11.01;100.00;101868.28;5036472;28;20030;-63
2023/09/26 05:44:22;;;;;;;13.88;12.57;;;;;;;11.01;100.00;101867.44;5030896;28;20047;-63
2023/09/26 05:46:48;;;;;;;13.57;12.23;;;;;;;11.01;100.00;101876.06;5031159;28;20029;-63
2023/09/26 05:49:13;;;;;;;14.45;12.98;;;;;;;11.02;100.00;101877.88;5030820;28;20022;-62
2023/09/26 05:51:38;;;;;;;14.55;13.20;;;;;;;11.03;100.00;101882.22;5028394;28;20078;-62
2023/09/26 05:54:04;;;;;;;13.73;12.27;;;;;;;11.03;100.00;101882.22;5029416;28;20026;-62
2023/09/26 05:56:29;;;;;;;13.80;12.40;;;;;;;11.05;100.00;101884.88;5028246;28;20037;-61
2023/09/26 05:58:54;;;;;;;13.90;12.60;;;;;;;11.08;100.00;101877.25;5027316;28;20352;-62
2023/09/26 06:01:19;;;;;;;13.82;12.40;;;;;;;11.09;100.00;101884.22;5027498;28;20025;-63
2023/09/26 06:03:45;;;;;;;13.77;12.27;;;;;;;11.10;100.00;101888.59;5026889;28;20401;-63
2023/09/26 06:06:10;;;;;;;15.18;13.35;;;;;;;11.11;100.00;101879.09;5027977;28;20120;-63
2023/09/26 06:08:35;;;;;;;13.20;12.00;;;;;;;11.14;100.00;101890.50;5028627;28;20658;-63
2023/09/26 06:11:02;;;;;;;13.13;11.90;;;;;;;11.20;100.00;101884.72;5028711;28;20072;-64
2023/09/26 06:13:27;;;;;;;12.70;11.55;;;;;;;11.27;100.00;101889.38;5028852;28;20026;-63
2023/09/26 06:15:53;;;;;;;14.55;12.38;;;;;;;11.32;100.00;101893.88;5030392;28;20029;-64
2023/09/26 06:18:18;;;;;;;13.73;12.35;;;;;;;11.36;100.00;101888.91;5030848;28;20087;-63
2023/09/26 06:20:44;;;;;;;15.50;12.57;;;;;;;11.39;100.00;101880.34;5030898;28;20067;-64
2023/09/26 06:23:10;;;;;;;13.50;12.10;;;;;;;11.45;100.00;101875.47;5030388;28;20489;-64
2023/09/26 06:25:35;;;;;;;12.63;11.32;;;;;;;11.50;100.00;101868.78;5030336;28;20037;-64
2023/09/26 06:28:01;;;;;;;13.00;11.65;;;;;;;11.57;100.00;101875.13;5028855;28;20024;-64
2023/09/26 06:30:26;;;;;;;12.98;11.55;;;;;;;11.63;100.00;101874.50;5029815;28;20429;-63
2023/09/26 06:32:52;;;;;;;11.27;10.30;;;;;;;11.66;100.00;101869.44;5029294;28;20025;-64
2023/09/26 06:35:17;;;;;;;12.65;10.95;;;;;;;11.71;100.00;101865.31;5041903;28;20508;-64
2023/09/26 06:37:42;;;;;;;11.88;10.77;;;;;;;11.75;100.00;101849.06;5043410;28;20032;-64
2023/09/26 06:40:08;;;;;;;12.45;11.35;;;;;;;11.82;100.00;101851.94;5041241;28;20033;-63
2023/09/26 06:42:34;;;;;;;12.10;11.02;;;;;;;11.85;100.00;101859.88;5048892;28;20595;-64
2023/09/26 06:44:59;;;;;;;12.18;10.98;;;;;;;11.89;100.00;101861.78;5049057;28;20147;-64
2023/09/26 06:47:26;;;;;;;12.90;11.68;;;;;;;11.92;100.00;101859.31;5048526;28;20071;-64
2023/09/26 06:49:56;;;;;;;11.95;10.95;;;;;;;11.96;100.00;101873.31;5048425;28;20028;-63
2023/09/26 06:52:22;;;;;;;12.13;11.05;;;;;;;12.00;100.00;101870.00;5048215;28;20079;-64
2023/09/26 06:54:48;;;;;;;13.75;11.27;;;;;;;12.04;100.00;101881.41;5048209;28;20028;-64
2023/09/26 06:57:17;;;;;;;12.38;10.45;;;;;;;12.07;100.00;101872.03;5047972;28;20029;-64
2023/09/26 06:59:47;;;;;;;12.68;11.35;;;;;;;12.11;100.00;101878.28;5047486;28;20031;-64
2023/09/26 07:02:12;;;;;;;12.63;11.00;;;;;;;12.16;100.00;101876.78;5024234;28;20017;-64
2023/09/26 07:04:38;;;;;;;12.20;11.00;;;;;;;12.21;100.00;101880.47;5046659;28;20025;-63
2023/09/26 07:07:03;;;;;;;12.90;11.60;;;;;;;12.27;100.00;101884.16;5046416;28;20283;-64
2023/09/26 07:09:28;;;;;;;15.82;9.88;;;;;;;12.33;100.00;101879.19;5046069;28;20335;-64
2023/09/26 07:11:55;;;;;;;12.13;10.77;;;;;;;12.39;100.00;101888.97;5047197;28;20120;-64
2023/09/26 07:14:20;;;;;;;12.23;10.95;;;;;;;12.44;100.00;101877.94;5045827;28;20028;-63
2023/09/26 07:16:47;;;;;;;11.90;10.70;;;;;;;12.52;100.00;101880.81;5046846;28;20465;-64
2023/09/26 07:19:12;;;;;;;12.35;11.18;;;;;;;12.58;100.00;101881.09;5046564;28;20051;-64
2023/09/26 07:21:37;;;;;;;11.20;10.10;;;;;;;12.64;100.00;101880.44;5047197;28;20477;-64
2023/09/26 07:24:03;;;;;;;11.57;10.48;;;;;;;12.75;100.00;101875.69;5046484;28;20025;-64
2023/09/26 07:26:29;;;;;;;11.10;10.10;;;;;;;12.87;100.00;101877.88;5047095;28;20048;-64
2023/09/26 07:28:54;;;;;;;12.25;11.07;;;;;;;13.03;100.00;101883.66;5045065;28;20087;-64
2023/09/26 07:31:20;;;;;;;11.75;10.55;;;;;;;13.19;100.00;101880.81;5046134;28;20032;-64
2023/09/26 07:33:46;;;;;;;13.07;11.35;;;;;;;13.44;100.00;101881.72;5045648;28;20027;-64
2023/09/26 07:36:11;;;;;;;10.98;9.98;;;;;;;13.78;100.00;101881.22;5046158;28;20055;-64
2023/09/26 07:38:37;;;;;;;11.55;9.68;;;;;;;14.10;100.00;101877.97;5034572;28;20393;-63
2023/09/26 07:41:03;;;;;;;9.50;8.65;;;;;;;14.53;100.00;101891.53;5028483;28;20045;-64
2023/09/26 07:43:33;;;;;;;8.98;8.05;;;;;;;14.92;100.00;101884.03;5028890;28;20029;-64
2023/09/26 07:46:09;;;;;;;10.95;8.23;;;;;;;15.18;100.00;101883.97;5035678;28;20540;-64
2023/09/26 07:48:35;;;;;;;9.05;8.02;;;;;;;15.26;100.00;101887.66;5033130;28;20155;-64
2023/09/26 07:51:01;;;;;;;9.35;7.88;;;;;;;15.47;100.00;101882.16;5028191;28;20022;-63
2023/09/26 07:53:27;;;;;;;8.98;8.18;;;;;;;15.57;100.00;101878.09;5030161;28;20021;-65
2023/09/26 07:55:55;;;;;;;7.90;7.10;;;;;;;15.45;100.00;101880.38;5047360;28;20032;-64
2023/09/26 07:58:20;;;;;;;8.05;7.03;;;;;;;15.45;100.00;101878.63;5034766;28;20057;-64
2023/09/26 08:00:45;;;;;;;7.95;7.15;;;;;;;15.39;100.00;101882.78;5047697;28;20098;-64
2023/09/26 08:03:11;;;;;;;8.18;7.32;;;;;;;15.32;100.00;101884.34;5033916;28;20434;-62
2023/09/26 08:05:36;;;;;;;8.32;7.63;;;;;;;15.30;100.00;101894.75;5038336;28;20478;-64
2023/09/26 08:08:04;;;;;;;8.32;7.53;;;;;;;15.24;100.00;101887.63;5029627;28;20050;-64
2023/09/26 08:10:31;;;;;;;8.60;7.63;;;;;;;15.17;100.00;101888.28;5047441;28;20032;-63
2023/09/26 08:12:57;;;;;;;9.13;7.65;;;;;;;15.12;100.00;101888.16;5046518;28;20018;-64
2023/09/26 08:15:22;;;;;;;8.43;7.72;;;;;;;15.08;100.00;101880.16;5046941;28;20025;-64
2023/09/26 08:17:48;;;;;;;8.70;7.88;;;;;;;15.09;100.00;101867.16;5046555;28;20377;-64
2023/09/26 08:20:14;;;;;;;8.85;7.95;;;;;;;15.12;100.00;101859.44;5046567;28;20545;-64
2023/09/26 08:22:39;;;;;;;9.38;8.07;;;;;;;15.12;100.00;101853.34;5046165;28;20021;-64
2023/09/26 08:25:05;;;;;;;9.07;8.23;;;;;;;15.11;100.00;101865.47;5047030;28;20032;-63
2023/09/26 08:27:31;;;;;;;8.68;7.80;;;;;;;15.31;100.00;101873.00;5045287;28;20028;-64
2023/09/26 08:29:59;;;;;;;9.75;8.75;;;;;;;15.51;100.00;101877.06;5045939;28;20384;-64
2023/09/26 08:32:24;;;;;;;8.73;7.93;;;;;;;15.72;100.00;101867.16;5045630;28;20064;-64
2023/09/26 08:34:50;;;;;;;10.05;7.75;;;;;;;16.03;100.00;101861.91;5046374;28;20064;-64
2023/09/26 08:37:15;;;;;;;7.75;6.93;;;;;;;16.26;100.00;101864.19;5042595;28;20032;-64
2023/09/26 08:39:43;;;;;;;7.70;7.00;;;;;;;16.47;100.00;101868.22;5027421;28;20478;-64
2023/09/26 08:42:14;;;;;;;7.97;7.18;;;;;;;16.63;100.00;101871.16;5029700;28;20029;-64
2023/09/26 08:44:39;;;;;;;7.97;7.22;;;;;;;16.86;100.00;101882.16;5046809;28;20025;-64
2023/09/26 08:47:04;;;;;;;8.25;6.40;;;;;;;17.16;100.00;101881.09;5046741;28;20027;-65
2023/09/26 08:49:30;;;;;;;7.03;6.03;;;;;;;17.47;100.00;101859.88;5047213;28;20025;-64
2023/09/26 08:51:56;;;;;;;8.38;6.57;;;;;;;17.74;100.00;101866.50;5047903;28;20056;-64
2023/09/26 08:54:22;;;;;;;8.07;6.05;;;;;;;17.93;100.00;101852.84;5051112;28;20059;-64
2023/09/26 08:56:47;;;;;;;7.43;5.53;;;;;;;18.07;100.00;101858.31;5050900;28;20067;-64
2023/09/26 08:59:15;;;;;;;6.05;5.22;;;;;;;18.21;100.00;101864.72;5051195;28;20429;-64
2023/09/26 09:01:41;;;;;;;5.70;5.10;;;;;;;18.39;100.00;101864.97;5051100;28;20425;-64
2023/09/26 09:04:07;;;;;;;5.90;5.30;;;;;;;18.50;100.00;101865.13;5050662;28;20108;-64
2023/09/26 09:06:32;;;;;;;10.48;5.90;;;;;;;18.52;100.00;101869.56;5050019;28;20074;-65
2023/09/26 09:09:13;;;;;;;10.98;5.63;;;;;;;18.57;100.00;101862.63;5050251;28;20056;-64
2023/09/26 09:11:38;;;;;;;6.38;4.70;;;;;;;18.64;100.00;101858.34;5050337;28;20115;-64
2023/09/26 09:14:04;;;;;;;10.23;4.93;;;;;;;18.74;100.00;101853.25;5051181;28;20478;-64
2023/09/26 09:16:30;;;;;;;5.53;4.25;;;;;;;18.87;100.00;101857.78;5049825;28;20036;-65
2023/09/26 09:18:58;;;;;;;25.08;13.15;;;;;;;18.99;100.00;101869.31;5039023;28;20022;-64
2023/09/26 09:21:32;;;;;;;15.52;8.57;;;;;;;19.05;100.00;101862.41;5048818;28;20021;-64
2023/09/26 09:24:00;;;;;;;6.40;5.38;;;;;;;19.08;100.00;101851.97;5049524;28;20032;-64
2023/09/26 09:26:31;;;;;;;8.05;5.18;;;;;;;19.03;100.00;101871.13;5050109;28;20017;-64
2023/09/26 09:28:59;;;;;;;6.53;3.80;;;;;;;19.06;100.00;101876.44;5049198;28;20251;-65
2023/09/26 09:31:26;;;;;;;5.30;3.92;;;;;;;19.02;100.00;101867.63;5050228;28;20069;-65
2023/09/26 09:33:52;;;;;;;6.22;3.55;;;;;;;19.08;100.00;101858.94;5048690;28;20025;-65
2023/09/26 09:36:18;;;;;;;5.00;3.15;;;;;;;19.06;100.00;101861.56;5049798;28;20377;-65
2023/09/26 09:38:43;;;;;;;5.68;3.72;;;;;;;19.09;100.00;101860.69;5034900;28;20029;-65
2023/09/26 09:41:09;;;;;;;6.00;3.47;;;;;;;19.10;100.00;101856.34;5030792;28;20099;-64
2023/09/26 09:43:35;;;;;;;6.05;3.58;;;;;;;19.06;100.00;101856.31;5031321;28;20053;-65
2023/09/26 09:46:06;;;;;;;5.78;3.40;;;;;;;19.03;100.00;101852.75;5038229;28;20028;-65
2023/09/26 09:48:39;;;;;;;6.43;3.83;;;;;;;18.96;100.00;101844.78;5049075;28;20087;-65
2023/09/26 09:51:09;;;;;;;4.55;3.30;;;;;;;18.95;100.00;101844.78;5030443;28;20054;-65
2023/09/26 09:53:35;;;;;;;5.65;4.10;;;;;;;19.00;100.00;101823.81;5030518;28;20022;-65
2023/09/26 09:56:06;;;;;;;4.35;3.22;;;;;;;19.06;100.00;101818.66;5030653;28;20042;-64
2023/09/26 09:58:33;;;;;;;4.57;3.03;;;;;;;19.12;100.00;101829.28;5034964;28;20096;-65
2023/09/26 10:00:59;;;;;;;7.18;3.15;;;;;;;19.15;100.00;101833.66;5049945;28;20013;-65
2023/09/26 10:03:26;;;;;;;4.20;3.10;;;;;;;19.20;100.00;101832.88;5045724;28;20017;-65
2023/09/26 10:05:52;;;;;;;5.85;3.38;;;;;;;19.23;100.00;101833.75;5030157;28;20029;-65
2023/09/26 10:08:19;;;;;;;5.35;3.20;;;;;;;19.26;100.00;101831.16;5033455;28;20140;-65
2023/09/26 10:10:45;;;;;;;5.05;2.97;;;;;;;19.30;100.00;101827.72;5050075;28;20090;-65
2023/09/26 10:13:13;;;;;;;2.90;2.45;;;;;;;19.30;100.00;101840.84;5049509;28;20045;-65
2023/09/26 10:16:02;;;;;;;4.55;2.78;;;;;;;19.31;100.00;101832.09;5049757;28;20037;-65
2023/09/26 10:18:28;;;;;;;5.03;2.95;;;;;;;19.32;100.00;101831.22;5018395;28;20107;-65
2023/09/26 10:20:53;;;;;;;4.85;2.78;;;;;;;19.35;100.00;101836.53;5029775;28;20067;-65
2023/09/26 10:23:18;;;;;;;4.97;2.47;;;;;;;19.39;100.00;101838.31;5029555;28;20093;-64
2023/09/26 10:25:43;;;;;;;5.07;2.58;;;;;;;19.41;100.00;101831.31;5030577;28;20032;-65
2023/09/26 10:28:09;;;;;;;2.72;2.13;;;;;;;19.42;100.00;101840.09;5029954;28;20021;-65
2023/09/26 10:30:47;;;;;;;5.25;3.20;;;;;;;19.38;100.00;101836.56;5029690;28;20048;-64
2023/09/26 10:33:13;;;;;;;4.03;2.65;;;;;;;19.40;100.00;101832.22;5030260;28;20041;-65
2023/09/26 10:35:43;;;;;;;4.35;2.60;;;;;;;19.43;100.00;101828.72;5030658;28;20020;-65
2023/09/26 10:38:18;;;;;;;4.22;2.78;;;;;;;19.47;100.00;101824.38;5030331;28;20076;-65
2023/09/26 10:40:44;;;;;;;3.90;2.03;;;;;;;19.54;100.00;101831.47;5029782;28;20019;-65
2023/09/26 10:43:09;;;;;;;6.35;2.25;;;;;;;19.57;100.00;101823.63;5029399;28;20029;-65
2023/09/26 10:45:34;;;;;;;3.33;2.30;;;;;;;19.61;100.00;101816.66;5029126;28;20418;-65
2023/09/26 10:48:07;;;;;;;4.00;2.85;;;;;;;19.64;100.00;101816.66;5030515;28;20025;-65
2023/09/26 10:50:32;;;;;;;4.90;2.42;;;;;;;19.64;100.00;101820.19;5030643;28;20026;-64
2023/09/26 10:52:58;;;;;;;6.43;2.58;;;;;;;19.67;100.00;101822.84;5030099;28;20378;-64
2023/09/26 10:55:24;;;;;;;4.60;2.70;;;;;;;19.70;100.00;101826.38;5030736;28;20381;-65
2023/09/26 10:57:50;;;;;;;6.03;2.33;;;;;;;19.71;100.00;101822.84;5030219;28;20057;-65
2023/09/26 11:00:17;;;;;;;5.95;2.55;;;;;;;19.74;100.00;101817.63;5029902;28;20029;-64
2023/09/26 11:02:43;;;;;;;3.97;2.95;;;;;;;19.77;100.00;101807.16;5029231;28;20030;-64
2023/09/26 11:05:10;;;;;;;4.22;2.40;;;;;;;19.85;100.00;101809.84;5030027;28;20109;-65